createdAt,value
2018-03-23T00:03:01.302Z,12.67
2018-03-23T00:06:04.582Z,13.90
2018-03-23T00:09:07.887Z,13.07
2018-03-23T00:12:11.150Z,9.37
2018-03-23T00:15:14.463Z,14.70
2018-03-23T00:18:17.754Z,11.17
2018-03-23T00:21:22.139Z,11.98
2018-03-23T00:24:25.437Z,13.03
2018-03-23T00:27:28.778Z,13.97
2018-03-23T00:30:32.062Z,14.10
2018-03-23T00:33:35.744Z,14.47
2018-03-23T00:36:39.750Z,16.23
2018-03-23T00:39:43.354Z,15.80
2018-03-23T00:42:47.061Z,15.73
2018-03-23T00:45:50.572Z,15.03
2018-03-23T00:48:54.981Z,15.38
2018-03-23T00:51:58.557Z,15.70
2018-03-23T00:55:01.817Z,14.83
2018-03-23T00:58:05.722Z,18.50
2018-03-23T01:01:09.511Z,14.43
2018-03-23T01:04:13.101Z,17.10
2018-03-23T01:07:17.064Z,15.60
2018-03-23T01:10:20.351Z,15.33
2018-03-23T01:13:23.624Z,17.23
2018-03-23T01:16:28.248Z,15.13
2018-03-23T01:19:31.739Z,15.40
2018-03-23T01:22:36.168Z,15.93
2018-03-23T01:25:39.749Z,17.03
2018-03-23T01:28:43.797Z,17.73
2018-03-23T01:31:47.473Z,21.40
2018-03-23T01:34:51.630Z,17.07
2018-03-23T01:37:55.235Z,16.13
2018-03-23T01:40:59.460Z,15.47
2018-03-23T01:44:02.761Z,16.07
2018-03-23T01:47:06.664Z,17.03
2018-03-23T01:50:10.372Z,17.90
2018-03-23T01:53:31.769Z,16.60
2018-03-23T01:56:36.511Z,18.58
2018-03-23T01:59:40.525Z,18.90
2018-03-23T02:02:43.820Z,18.83
2018-03-23T02:05:47.138Z,15.20
2018-03-23T02:08:50.451Z,14.30
2018-03-23T02:11:53.994Z,14.30
2018-03-23T02:14:57.252Z,17.43
2018-03-23T02:18:00.740Z,16.90
2018-03-23T02:21:04.009Z,18.33
2018-03-23T02:24:08.068Z,20.07
2018-03-23T02:27:11.614Z,17.93
2018-03-23T02:30:15.930Z,15.77
2018-03-23T02:33:21.449Z,19.17
2018-03-23T02:36:24.804Z,16.20
2018-03-23T02:39:28.145Z,21.87
2018-03-23T02:42:31.458Z,14.83
2018-03-23T02:45:34.844Z,19.20
2018-03-23T02:48:38.302Z,17.40
2018-03-23T02:51:41.732Z,16.20
2018-03-23T02:54:45.024Z,15.13
2018-03-23T02:57:48.310Z,18.13
2018-03-23T03:00:51.887Z,15.93
2018-03-23T03:03:55.941Z,19.07
2018-03-23T03:06:59.442Z,18.50
2018-03-23T03:10:02.727Z,19.97
2018-03-23T03:13:06.321Z,17.17
2018-03-23T03:16:09.926Z,22.47
2018-03-23T03:19:13.977Z,19.33
2018-03-23T03:22:17.265Z,20.37
2018-03-23T03:25:20.641Z,14.93
2018-03-23T03:28:23.962Z,19.50
2018-03-23T03:31:27.540Z,21.35
2018-03-23T03:34:31.569Z,18.43
2018-03-23T03:37:35.089Z,17.53
2018-03-23T03:40:38.408Z,20.90
2018-03-23T03:43:41.720Z,20.67
2018-03-23T03:46:45.061Z,20.97
2018-03-23T03:49:48.621Z,22.70
2018-03-23T03:52:51.888Z,17.90
2018-03-23T03:55:55.190Z,21.90
2018-03-23T03:58:58.888Z,17.53
2018-03-23T04:02:02.165Z,22.37
2018-03-23T04:05:05.570Z,16.97
2018-03-23T04:08:09.172Z,19.47
2018-03-23T04:11:12.767Z,19.20
2018-03-23T04:14:16.797Z,18.73
2018-03-23T04:17:20.050Z,18.50
2018-03-23T04:20:23.564Z,21.03
2018-03-23T04:23:27.012Z,24.27
2018-03-23T04:26:30.478Z,24.15
2018-03-23T04:29:34.589Z,18.10
2018-03-23T04:32:38.096Z,19.20
2018-03-23T04:35:42.228Z,19.42
2018-03-23T04:38:46.984Z,27.00
2018-03-23T04:41:50.537Z,27.95
2018-03-23T04:44:53.837Z,17.83
2018-03-23T04:47:57.198Z,22.23
2018-03-23T04:51:00.579Z,20.00
2018-03-23T04:54:03.878Z,18.47
2018-03-23T04:57:07.289Z,21.93
2018-03-23T05:00:10.770Z,17.30
2018-03-23T05:03:14.325Z,23.27
2018-03-23T05:06:18.005Z,23.37
2018-03-23T05:12:43.418Z,18.27
2018-03-23T05:15:46.856Z,18.70
2018-03-23T05:18:51.622Z,20.30
2018-03-23T05:22:00.226Z,19.93
2018-03-23T05:25:06.056Z,20.83
2018-03-23T05:28:14.247Z,23.17
2018-03-23T05:31:17.706Z,22.10
2018-03-23T05:34:21.642Z,21.50
2018-03-23T05:37:25.302Z,20.13
2018-03-23T05:40:28.941Z,23.13
2018-03-23T05:43:37.120Z,20.60
2018-03-23T05:46:41.495Z,19.80
2018-03-23T05:49:45.779Z,17.73
2018-03-23T05:52:49.521Z,21.97
2018-03-23T05:55:52.893Z,20.23
2018-03-23T05:58:56.333Z,17.17
2018-03-23T06:01:59.831Z,19.60
2018-03-23T06:05:03.272Z,20.67
2018-03-23T06:08:07.205Z,19.90
2018-03-23T06:11:11.639Z,22.03
2018-03-23T06:14:16.788Z,16.83
2018-03-23T06:17:21.183Z,18.53
2018-03-23T06:20:24.892Z,19.42
2018-03-23T06:23:28.514Z,19.13
2018-03-23T06:26:33.273Z,20.47
2018-03-23T06:29:38.190Z,22.27
2018-03-23T06:32:41.764Z,18.40
2018-03-23T06:35:45.042Z,20.17
2018-03-23T06:38:49.092Z,20.30
2018-03-23T06:41:52.379Z,16.93
2018-03-23T06:44:55.655Z,16.53
2018-03-23T06:47:59.392Z,18.73
2018-03-23T06:54:23.820Z,18.13
2018-03-23T06:57:27.943Z,13.90
2018-03-23T07:00:35.098Z,17.00
2018-03-23T07:03:39.867Z,15.37
2018-03-23T07:06:43.272Z,18.13
2018-03-23T07:09:46.550Z,17.30
2018-03-23T07:12:49.879Z,15.23
2018-03-23T07:15:53.262Z,15.10
2018-03-23T07:18:56.547Z,15.67
2018-03-23T07:21:59.891Z,16.63
2018-03-23T07:25:03.201Z,14.67
2018-03-23T07:28:06.493Z,14.73
2018-03-23T07:31:09.844Z,16.87
2018-03-23T07:34:13.104Z,16.83
2018-03-23T07:37:16.376Z,14.73
2018-03-23T07:40:19.673Z,15.97
2018-03-23T07:43:22.925Z,14.23
2018-03-23T07:46:26.971Z,14.40
2018-03-23T07:49:30.234Z,19.30
2018-03-23T07:52:34.252Z,17.27
2018-03-23T07:55:38.409Z,20.53
2018-03-23T07:58:41.671Z,14.53
2018-03-23T08:01:44.933Z,15.37
2018-03-23T08:04:48.206Z,15.63
2018-03-23T08:07:51.491Z,14.97
2018-03-23T08:10:54.775Z,15.90
2018-03-23T08:13:58.038Z,13.77
2018-03-23T08:17:02.161Z,14.90
2018-03-23T08:20:06.252Z,13.90
2018-03-23T08:23:09.501Z,14.27
2018-03-23T08:26:12.818Z,14.50
2018-03-23T08:29:16.138Z,15.90
2018-03-23T08:32:19.407Z,16.27
2018-03-23T08:35:22.669Z,15.60
2018-03-23T08:38:26.689Z,14.50
2018-03-23T08:41:30.812Z,15.20
2018-03-23T08:44:34.097Z,14.47
2018-03-23T08:47:38.235Z,13.70
2018-03-23T08:50:41.476Z,16.40
2018-03-23T08:53:44.732Z,12.43
2018-03-23T08:56:48.077Z,14.00
2018-03-23T08:59:51.333Z,13.03
2018-03-23T09:02:54.598Z,14.70
2018-03-23T09:05:58.647Z,15.67
2018-03-23T09:09:02.042Z,12.97
2018-03-23T09:12:05.313Z,15.63
2018-03-23T09:15:09.470Z,14.70
2018-03-23T09:18:12.740Z,14.87
2018-03-23T09:21:16.003Z,14.57
2018-03-23T09:24:19.436Z,13.17
2018-03-23T09:27:23.491Z,14.30
2018-03-23T09:30:26.853Z,13.53
2018-03-23T09:33:30.121Z,15.80
2018-03-23T09:36:34.733Z,14.60
2018-03-23T09:39:38.000Z,14.70
2018-03-23T09:42:42.129Z,13.23
2018-03-23T09:45:45.476Z,15.97
2018-03-23T09:48:49.522Z,14.87
2018-03-23T09:51:53.708Z,14.17
2018-03-23T09:54:57.726Z,13.87
2018-03-23T09:58:01.954Z,11.40
2018-03-23T10:01:06.061Z,14.80
2018-03-23T10:04:10.510Z,14.03
2018-03-23T10:07:13.874Z,14.40
2018-03-23T10:10:17.219Z,15.53
2018-03-23T10:13:20.858Z,15.00
2018-03-23T10:16:24.142Z,13.73
2018-03-23T10:19:27.533Z,15.90
2018-03-23T10:22:30.922Z,12.73
2018-03-23T10:25:34.238Z,12.10
2018-03-23T10:28:37.520Z,12.60
2018-03-23T10:31:40.815Z,15.10
2018-03-23T10:34:44.304Z,14.10
2018-03-23T10:37:47.582Z,11.30
2018-03-23T10:40:51.633Z,10.03
2018-03-23T10:43:54.905Z,12.37
2018-03-23T10:46:58.932Z,11.33
2018-03-23T10:50:02.194Z,11.77
2018-03-23T10:53:05.587Z,12.60
2018-03-23T10:56:08.886Z,14.45
2018-03-23T10:59:12.152Z,13.73
2018-03-23T11:02:20.863Z,12.83
2018-03-23T11:05:24.132Z,12.33
2018-03-23T11:08:28.164Z,14.00
2018-03-23T11:11:32.388Z,13.53
2018-03-23T11:14:35.649Z,13.88
2018-03-23T11:17:39.688Z,15.57
2018-03-23T11:20:42.953Z,12.70
2018-03-23T11:23:47.602Z,12.05
2018-03-23T11:26:51.751Z,15.27
2018-03-23T11:29:55.054Z,12.27
2018-03-23T11:32:58.316Z,11.63
2018-03-23T11:36:02.462Z,11.27
2018-03-23T11:39:05.736Z,11.05
2018-03-23T11:42:09.171Z,12.80
2018-03-23T11:45:12.437Z,15.90
2018-03-23T11:48:15.697Z,12.00
2018-03-23T11:51:19.025Z,11.00
2018-03-23T11:54:23.052Z,13.43
2018-03-23T11:57:26.322Z,10.93
2018-03-23T12:00:30.341Z,12.20
2018-03-23T12:03:34.473Z,12.63
2018-03-23T12:06:37.759Z,11.40
2018-03-23T12:09:41.792Z,10.87
2018-03-23T12:12:45.056Z,10.37
2018-03-23T12:15:48.323Z,11.83
2018-03-23T12:18:51.865Z,9.52
2018-03-23T12:21:55.124Z,12.97
2018-03-23T12:25:02.332Z,14.23
2018-03-23T12:28:05.797Z,10.80
2018-03-23T12:31:09.410Z,12.77
2018-03-23T12:34:13.687Z,14.27
2018-03-23T12:37:17.704Z,14.23
2018-03-23T12:40:21.780Z,12.63
2018-03-23T12:43:25.036Z,12.60
2018-03-23T12:46:28.316Z,13.07
2018-03-23T12:49:32.338Z,10.53
2018-03-23T12:52:36.369Z,12.93
2018-03-23T12:55:40.406Z,12.70
2018-03-23T12:58:46.870Z,12.80
2018-03-23T13:01:50.821Z,10.53
2018-03-23T13:04:54.852Z,13.73
2018-03-23T13:07:58.112Z,9.27
2018-03-23T13:11:01.368Z,11.50
2018-03-23T13:14:05.405Z,11.50
2018-03-23T13:17:08.663Z,10.93
2018-03-23T13:20:13.093Z,10.17
2018-03-23T13:23:17.119Z,11.10
2018-03-23T13:26:21.676Z,11.93
2018-03-23T13:29:24.992Z,11.10
2018-03-23T13:32:28.347Z,11.83
2018-03-23T13:35:32.425Z,9.47
2018-03-23T13:38:35.697Z,9.87
2018-03-23T13:41:39.284Z,12.23
2018-03-23T13:44:42.608Z,11.00
2018-03-23T13:47:47.115Z,10.00
2018-03-23T13:50:53.568Z,11.60
2018-03-23T13:53:57.901Z,11.40
2018-03-23T13:57:02.913Z,10.00
2018-03-23T14:03:44.293Z,9.67
2018-03-23T14:06:48.388Z,12.43
2018-03-23T14:09:51.879Z,11.27
2018-03-23T14:12:55.830Z,11.17
2018-03-23T14:16:00.346Z,11.93
2018-03-23T14:19:04.496Z,11.23
2018-03-23T14:22:07.817Z,12.83
2018-03-23T14:25:11.121Z,11.67
2018-03-23T14:28:14.484Z,9.53
2018-03-23T14:31:17.807Z,12.87
2018-03-23T14:34:21.226Z,13.60
2018-03-23T14:37:24.517Z,11.47
2018-03-23T14:40:27.828Z,12.40
2018-03-23T14:43:31.092Z,13.17
2018-03-23T14:46:34.423Z,10.10
2018-03-23T14:49:37.698Z,8.93
2018-03-23T14:52:40.967Z,7.83
2018-03-23T14:55:44.359Z,11.13
2018-03-23T14:58:53.102Z,9.87
2018-03-23T15:01:56.433Z,9.37
2018-03-23T15:04:59.736Z,9.00
2018-03-23T15:08:02.998Z,10.67
2018-03-23T15:11:06.275Z,9.10
2018-03-23T15:14:19.472Z,11.03
2018-03-23T15:17:22.892Z,10.40
2018-03-23T15:20:26.201Z,9.80
2018-03-23T15:23:29.489Z,11.07
2018-03-23T15:26:33.116Z,11.13
2018-03-23T15:29:36.422Z,8.93
2018-03-23T15:32:39.710Z,7.83
2018-03-23T15:35:43.057Z,8.33
2018-03-23T15:38:47.859Z,10.20
2018-03-23T15:41:51.326Z,8.87
2018-03-23T15:44:54.595Z,9.47
2018-03-23T15:47:57.925Z,11.47
2018-03-23T15:51:01.253Z,9.48
2018-03-23T15:54:04.504Z,9.83
2018-03-23T15:57:08.564Z,38.63
2018-03-23T16:00:11.860Z,9.53
2018-03-23T16:03:15.197Z,13.47
2018-03-23T16:06:18.464Z,14.23
2018-03-23T16:09:21.742Z,10.07
2018-03-23T16:12:25.121Z,10.33
2018-03-23T16:15:29.300Z,10.93
2018-03-23T16:18:32.732Z,8.67
2018-03-23T16:21:36.765Z,7.83
2018-03-23T16:24:40.037Z,8.50
2018-03-23T16:27:44.893Z,13.33
2018-03-23T16:30:48.161Z,8.57
2018-03-23T16:33:51.486Z,12.07
2018-03-23T16:36:54.752Z,13.27
2018-03-23T16:39:58.117Z,13.27
2018-03-23T16:43:01.482Z,8.93
2018-03-23T16:46:04.762Z,12.53
2018-03-23T16:49:08.812Z,9.80
2018-03-23T16:52:12.090Z,9.37
2018-03-23T16:55:16.114Z,7.97
2018-03-23T16:58:19.470Z,9.30
2018-03-23T17:01:23.536Z,7.90
2018-03-23T17:04:26.956Z,9.93
2018-03-23T17:07:30.301Z,9.17
2018-03-23T17:10:34.355Z,9.80
2018-03-23T17:13:37.908Z,10.93
2018-03-23T17:16:41.170Z,10.10
2018-03-23T17:19:44.600Z,8.67
2018-03-23T17:22:47.825Z,9.83
2018-03-23T17:25:51.877Z,9.77
2018-03-23T17:28:55.152Z,9.20
2018-03-23T17:31:58.414Z,9.97
2018-03-23T17:35:01.975Z,10.10
2018-03-23T17:38:06.173Z,9.60
2018-03-23T17:41:09.445Z,12.80
2018-03-23T17:44:13.591Z,14.20
2018-03-23T17:47:16.926Z,14.20
2018-03-23T17:50:20.189Z,14.32
2018-03-23T17:53:23.467Z,16.33
2018-03-23T17:56:27.508Z,21.70
2018-03-23T17:59:30.936Z,14.23
2018-03-23T18:02:34.807Z,11.97
2018-03-23T18:05:38.162Z,18.00
2018-03-23T18:08:42.225Z,11.77
2018-03-23T18:11:45.666Z,10.97
2018-03-23T18:14:48.949Z,9.20
2018-03-23T18:17:52.207Z,22.37
2018-03-23T18:20:56.541Z,24.20
2018-03-23T18:24:00.996Z,16.33
2018-03-23T18:27:04.366Z,13.40
2018-03-23T18:30:07.780Z,9.17
2018-03-23T18:33:11.085Z,12.90
2018-03-23T18:36:14.403Z,12.02
2018-03-23T18:39:17.724Z,17.97
2018-03-23T18:42:20.997Z,16.50
2018-03-23T18:45:24.272Z,16.23
2018-03-23T18:48:27.528Z,14.20
2018-03-23T18:51:30.793Z,10.87
2018-03-23T18:54:34.077Z,10.63
2018-03-23T18:57:37.364Z,10.97
2018-03-23T19:00:40.650Z,10.50
2018-03-23T19:03:43.969Z,15.77
2018-03-23T19:06:47.316Z,12.93
2018-03-23T19:09:51.695Z,13.50
2018-03-23T19:12:55.269Z,12.53
2018-03-23T19:15:58.601Z,12.90
2018-03-23T19:19:01.982Z,16.37
2018-03-23T19:22:05.363Z,17.37
2018-03-23T19:25:09.480Z,17.77
2018-03-23T19:28:12.753Z,21.60
2018-03-23T19:31:16.031Z,11.43
2018-03-23T19:34:19.348Z,18.58
2018-03-23T19:37:23.386Z,16.20
2018-03-23T19:40:27.415Z,14.33
2018-03-23T19:43:30.670Z,12.70
2018-03-23T19:46:34.781Z,12.67
2018-03-23T19:49:38.195Z,12.83
2018-03-23T19:52:42.347Z,12.50
2018-03-23T19:55:45.642Z,9.37
2018-03-23T19:58:48.913Z,10.53
2018-03-23T20:01:52.951Z,10.93
2018-03-23T20:04:56.520Z,12.73
2018-03-23T20:08:00.562Z,12.17
2018-03-23T20:11:03.837Z,11.70
2018-03-23T20:14:10.767Z,17.47
2018-03-23T20:17:14.027Z,15.50
2018-03-23T20:20:23.473Z,10.77
2018-03-23T20:23:27.487Z,11.17
2018-03-23T20:26:30.755Z,9.85
2018-03-23T20:29:34.085Z,9.17
2018-03-23T20:32:37.538Z,10.13
2018-03-23T20:35:40.881Z,18.80
2018-03-23T20:38:44.927Z,22.63
2018-03-23T20:41:48.221Z,17.07
2018-03-23T20:44:51.558Z,12.60
2018-03-23T20:47:54.820Z,16.03
2018-03-23T20:50:58.102Z,12.17
2018-03-23T20:54:01.369Z,18.27
2018-03-23T20:57:05.416Z,18.50
2018-03-23T21:00:08.728Z,15.90
2018-03-23T21:03:11.994Z,19.57
2018-03-23T21:06:16.036Z,15.77
2018-03-23T21:09:19.331Z,13.00
2018-03-23T21:12:22.601Z,12.93
2018-03-23T21:15:26.187Z,12.70
2018-03-23T21:18:29.448Z,16.37
2018-03-23T21:21:32.718Z,12.63
2018-03-23T21:24:36.032Z,16.77
2018-03-23T21:27:39.423Z,20.03
2018-03-23T21:30:43.314Z,13.17
2018-03-23T21:33:47.596Z,11.25
2018-03-23T21:36:50.869Z,11.03
2018-03-23T21:39:54.186Z,12.87
2018-03-23T21:42:57.447Z,11.97
2018-03-23T21:46:00.722Z,9.17
2018-03-23T21:49:13.025Z,11.07
2018-03-23T21:52:17.156Z,12.57
2018-03-23T21:55:20.431Z,12.60
2018-03-23T21:58:24.453Z,11.83
2018-03-23T22:01:28.498Z,12.77
2018-03-23T22:04:31.895Z,11.47
2018-03-23T22:07:35.280Z,10.83
2018-03-23T22:10:39.314Z,13.37
2018-03-23T22:13:42.578Z,9.37
2018-03-23T22:16:45.921Z,11.97
2018-03-23T22:19:49.714Z,13.10
2018-03-23T22:22:55.537Z,14.53
2018-03-23T22:26:02.425Z,12.40
2018-03-23T22:29:06.467Z,13.03
2018-03-23T22:32:09.733Z,12.43
2018-03-23T22:35:13.006Z,10.47
2018-03-23T22:38:16.272Z,10.13
2018-03-23T22:41:19.539Z,11.53
2018-03-23T22:44:23.784Z,11.67
2018-03-23T22:47:27.040Z,14.90
2018-03-23T22:50:30.860Z,16.37
2018-03-23T22:53:34.796Z,13.90
2018-03-23T22:56:38.100Z,13.13
2018-03-23T22:59:41.381Z,11.70
2018-03-23T23:02:45.398Z,14.03
2018-03-23T23:05:48.687Z,12.17
2018-03-23T23:08:52.052Z,12.67
2018-03-23T23:11:55.326Z,12.80
2018-03-23T23:14:58.598Z,13.97
2018-03-23T23:18:01.888Z,11.60
2018-03-23T23:21:05.926Z,11.87
2018-03-23T23:24:09.213Z,9.57
2018-03-23T23:27:12.476Z,11.87
2018-03-23T23:30:16.510Z,12.55
2018-03-23T23:33:19.967Z,11.07
2018-03-23T23:36:23.460Z,9.23
2018-03-23T23:39:27.353Z,13.65
2018-03-23T23:42:30.618Z,13.90
2018-03-23T23:45:34.696Z,15.25
2018-03-23T23:48:37.952Z,11.80
2018-03-23T23:51:41.214Z,13.40
2018-03-23T23:54:45.553Z,15.10
2018-03-23T23:57:49.596Z,10.77
